Terminal Aerodrome Forecast
Issued by NWS

Home | Current Version | Previous Version | Text Only | Print | Product List | Glossary On
Versions: 1 2 3 4 5 6 7 8 9 10 11 12
691
FTUS41 KBTV 231730
TAFRUT
TAF
KRUT 231730Z 2318/2418 18009G15KT P6SM BKN200
     FM232300 14009G16KT P6SM BKN140
     FM240500 14011G20KT P6SM VCSH OVC070
     FM241300 15016G37KT 6SM -RA BR OVC040=

USA.gov is the U.S. government's official web portal to all federal, state and local government web resources and services.